createdAt,value
2023-04-10T00:00:53.187Z,13.10
2023-04-10T00:03:20.790Z,13.10
2023-04-10T00:09:52.542Z,13.10
2023-04-10T00:12:20.582Z,13.10
2023-04-10T00:14:47.932Z,13.10
2023-04-10T00:17:15.461Z,13.10
2023-04-10T00:19:42.740Z,13.10
2023-04-10T00:22:10.080Z,13.10
2023-04-10T00:24:37.321Z,13.10
2023-04-10T00:27:04.588Z,13.10
2023-04-10T00:29:31.823Z,13.10
2023-04-10T00:31:59.187Z,13.10
2023-04-10T00:34:26.509Z,13.10
2023-04-10T00:36:53.872Z,13.20
2023-04-10T00:39:21.137Z,13.20
2023-04-10T00:41:48.441Z,13.20
2023-04-10T00:44:15.813Z,13.20
2023-04-10T00:46:43.416Z,13.20
2023-04-10T00:49:10.853Z,13.20
2023-04-10T00:51:38.134Z,13.20
2023-04-10T00:54:06.562Z,13.10
2023-04-10T00:56:33.828Z,13.10
2023-04-10T00:59:04.106Z,13.10
2023-04-10T01:01:32.492Z,13.10
2023-04-10T01:04:00.324Z,13.10
2023-04-10T01:06:35.702Z,13.10
2023-04-10T01:09:03.090Z,13.10
2023-04-10T01:11:30.772Z,13.10
2023-04-10T01:14:04.843Z,13.10
2023-04-10T01:16:36.148Z,13.00
2023-04-10T01:19:21.779Z,13.00
2023-04-10T01:21:49.427Z,13.00
2023-04-10T01:24:28.657Z,13.00
2023-04-10T01:27:06.124Z,12.90
2023-04-10T01:29:34.175Z,12.90
2023-04-10T01:32:12.383Z,12.90
2023-04-10T01:34:42.096Z,12.80
2023-04-10T01:37:13.182Z,12.80
2023-04-10T01:39:42.021Z,12.80
2023-04-10T01:42:10.722Z,12.80
2023-04-10T01:44:41.095Z,12.80
2023-04-10T01:47:08.547Z,12.80
2023-04-10T01:49:42.555Z,12.80
2023-04-10T01:52:11.335Z,12.80
2023-04-10T01:54:38.744Z,12.80
2023-04-10T01:57:06.477Z,12.80
2023-04-10T01:59:33.849Z,12.80
2023-04-10T02:02:01.658Z,12.80
2023-04-10T02:04:29.156Z,12.70
2023-04-10T02:07:34.774Z,12.70
2023-04-10T02:10:10.862Z,12.60
2023-04-10T02:12:53.667Z,12.60
2023-04-10T02:15:22.660Z,12.50
2023-04-10T02:17:50.679Z,12.50
2023-04-10T02:20:21.389Z,12.40
2023-04-10T02:22:48.967Z,12.40
2023-04-10T02:25:16.649Z,12.40
2023-04-10T02:27:44.869Z,12.30
2023-04-10T02:30:12.194Z,12.20
2023-04-10T02:32:39.615Z,12.10
2023-04-10T02:35:06.982Z,12.00
2023-04-10T02:37:34.794Z,12.00
2023-04-10T02:40:02.064Z,11.90
2023-04-10T02:42:29.408Z,11.80
2023-04-10T02:44:56.658Z,11.80
2023-04-10T02:47:23.966Z,11.80
2023-04-10T02:49:51.340Z,11.70
2023-04-10T02:52:18.833Z,11.60
2023-04-10T02:54:46.385Z,11.60
2023-04-10T02:57:13.639Z,11.60
2023-04-10T02:59:40.931Z,11.50
2023-04-10T03:02:08.347Z,11.50
2023-04-10T03:04:36.111Z,11.50
2023-04-10T03:07:03.423Z,11.50
2023-04-10T03:09:30.817Z,11.50
2023-04-10T03:11:58.366Z,11.50
2023-04-10T03:14:26.361Z,11.40
2023-04-10T03:16:53.647Z,11.30
2023-04-10T03:19:20.990Z,11.30
2023-04-10T03:21:48.360Z,11.30
2023-04-10T03:24:16.388Z,11.30
2023-04-10T03:26:43.857Z,11.30
2023-04-10T03:29:11.156Z,11.20
2023-04-10T03:31:38.822Z,11.10
2023-04-10T03:34:06.396Z,11.10
2023-04-10T03:36:33.809Z,11.00
2023-04-10T03:39:01.066Z,10.90
2023-04-10T03:41:28.392Z,10.90
2023-04-10T03:43:56.093Z,10.90
2023-04-10T03:46:23.744Z,10.90
2023-04-10T03:48:52.839Z,10.80
2023-04-10T03:51:20.128Z,10.80
2023-04-10T03:53:47.384Z,10.80
2023-04-10T03:56:14.672Z,10.70
2023-04-10T03:58:42.117Z,10.70
2023-04-10T04:01:09.394Z,10.70
2023-04-10T04:03:36.945Z,10.70
2023-04-10T04:06:04.408Z,10.70
2023-04-10T04:08:31.668Z,10.60
2023-04-10T04:10:59.014Z,10.70
2023-04-10T04:13:26.264Z,10.70
2023-04-10T04:15:53.440Z,10.70
2023-04-10T04:18:20.594Z,10.60
2023-04-10T04:20:47.894Z,10.70
2023-04-10T04:23:15.350Z,10.70
2023-04-10T04:25:43.793Z,10.70
2023-04-10T04:28:13.633Z,10.70
2023-04-10T04:30:40.949Z,10.70
2023-04-10T04:33:08.241Z,10.70
2023-04-10T04:35:35.603Z,10.60
2023-04-10T04:38:02.916Z,10.60
2023-04-10T04:40:30.300Z,10.70
2023-04-10T04:42:57.556Z,10.70
2023-04-10T04:45:24.916Z,10.70
2023-04-10T04:47:52.159Z,10.60
2023-04-10T04:50:19.417Z,10.60
2023-04-10T04:52:46.735Z,10.60
2023-04-10T04:55:14.035Z,10.60
2023-04-10T04:57:41.308Z,10.60
2023-04-10T05:00:08.810Z,10.60
2023-04-10T05:02:36.296Z,10.60
2023-04-10T05:05:03.896Z,10.50
2023-04-10T05:07:33.053Z,10.60
2023-04-10T05:10:00.507Z,10.60
2023-04-10T05:12:27.846Z,10.60
2023-04-10T05:14:55.250Z,10.60
2023-04-10T05:17:22.512Z,10.50
2023-04-10T05:19:49.820Z,10.60
2023-04-10T05:22:18.631Z,10.60
2023-04-10T05:24:46.110Z,10.60
2023-04-10T05:27:13.467Z,10.50
2023-04-10T05:29:40.999Z,10.50
2023-04-10T05:32:08.233Z,10.50
2023-04-10T05:34:35.502Z,10.50
2023-04-10T05:37:02.753Z,10.50
2023-04-10T05:39:30.000Z,10.50
2023-04-10T05:41:58.272Z,10.50
2023-04-10T05:44:25.630Z,10.50
2023-04-10T05:46:52.975Z,10.60
2023-04-10T05:49:20.343Z,10.60
2023-04-10T05:51:50.302Z,10.60
2023-04-10T05:54:17.681Z,10.60
2023-04-10T05:56:45.123Z,10.60
2023-04-10T05:59:13.356Z,10.60
2023-04-10T06:01:41.197Z,10.60
2023-04-10T06:04:08.706Z,10.60
2023-04-10T06:06:36.177Z,10.60
2023-04-10T06:09:03.661Z,10.60
2023-04-10T06:11:31.167Z,10.60
2023-04-10T06:13:58.385Z,10.60
2023-04-10T06:16:25.763Z,10.60
2023-04-10T06:18:54.361Z,10.70
2023-04-10T06:21:21.890Z,10.60
2023-04-10T06:23:49.238Z,10.70
2023-04-10T06:26:16.875Z,10.70
2023-04-10T06:28:45.006Z,10.70
2023-04-10T06:31:12.708Z,10.70
2023-04-10T06:33:39.996Z,10.70
2023-04-10T06:36:08.063Z,10.70
2023-04-10T06:38:37.762Z,10.80
2023-04-10T06:41:06.197Z,10.80
2023-04-10T06:43:36.897Z,10.80
2023-04-10T06:46:04.995Z,10.80
2023-04-10T06:48:32.698Z,10.90
2023-04-10T06:51:02.868Z,10.90
2023-04-10T06:53:30.189Z,11.00
2023-04-10T06:55:57.553Z,11.00
2023-04-10T06:58:24.828Z,11.00
2023-04-10T07:00:52.171Z,11.00
2023-04-10T07:03:19.654Z,11.00
2023-04-10T07:05:46.973Z,11.00
2023-04-10T07:08:14.282Z,11.00
2023-04-10T07:10:41.628Z,11.10
2023-04-10T07:13:08.874Z,11.10
2023-04-10T07:15:36.268Z,11.10
2023-04-10T07:18:03.772Z,11.10
2023-04-10T07:20:31.046Z,11.10
2023-04-10T07:22:58.323Z,11.10
2023-04-10T07:25:25.902Z,11.10
2023-04-10T07:27:53.169Z,11.00
2023-04-10T07:30:20.803Z,11.00
2023-04-10T07:33:02.649Z,11.00
2023-04-10T07:35:30.128Z,10.90
2023-04-10T07:37:57.434Z,10.80
2023-04-10T07:40:24.762Z,10.80
2023-04-10T07:42:53.763Z,10.80
2023-04-10T07:45:22.965Z,10.70
2023-04-10T07:47:50.203Z,10.70
2023-04-10T07:50:17.535Z,10.60
2023-04-10T07:52:44.774Z,10.70
2023-04-10T07:55:12.071Z,10.70
2023-04-10T07:57:40.612Z,10.60
2023-04-10T08:00:09.573Z,10.70
2023-04-10T08:02:37.157Z,10.60
2023-04-10T08:05:04.860Z,10.70
2023-04-10T08:07:32.259Z,10.70
2023-04-10T08:09:59.504Z,10.70
2023-04-10T08:12:26.725Z,10.70
2023-04-10T08:14:54.055Z,10.70
2023-04-10T08:17:21.310Z,10.80
2023-04-10T08:19:48.618Z,10.80
2023-04-10T08:22:15.983Z,10.90
2023-04-10T08:24:43.222Z,10.90
2023-04-10T08:27:10.552Z,10.90
2023-04-10T08:29:37.883Z,10.90
2023-04-10T08:32:05.288Z,10.90
2023-04-10T08:34:32.582Z,11.00
2023-04-10T08:36:59.834Z,11.00
2023-04-10T08:39:27.152Z,11.00
2023-04-10T08:41:55.376Z,11.00
2023-04-10T08:44:22.723Z,11.00
2023-04-10T08:46:50.748Z,11.10
2023-04-10T08:49:23.160Z,11.10
2023-04-10T08:51:55.496Z,11.10
2023-04-10T08:54:27.547Z,11.10
2023-04-10T08:56:55.593Z,11.10
2023-04-10T08:59:22.889Z,11.10
2023-04-10T09:01:50.390Z,11.10
2023-04-10T09:04:18.569Z,11.10
2023-04-10T09:06:45.951Z,11.20
2023-04-10T09:09:13.256Z,11.20
2023-04-10T09:12:09.900Z,11.20
2023-04-10T09:14:37.398Z,11.20
2023-04-10T09:17:15.034Z,11.30
2023-04-10T09:19:42.860Z,11.30
2023-04-10T09:22:10.116Z,11.30
2023-04-10T09:24:38.716Z,11.30
2023-04-10T09:27:06.318Z,11.30
2023-04-10T09:29:44.009Z,11.30
2023-04-10T09:32:12.598Z,11.40
2023-04-10T09:35:00.405Z,11.30
2023-04-10T09:37:34.011Z,11.30
2023-04-10T09:40:01.884Z,11.30
2023-04-10T09:42:33.202Z,11.30
2023-04-10T09:45:01.455Z,11.30
2023-04-10T09:47:29.190Z,11.30
2023-04-10T09:49:58.821Z,11.30
2023-04-10T09:52:30.759Z,11.40
2023-04-10T09:55:02.189Z,11.40
2023-04-10T09:57:30.702Z,11.40
2023-04-10T09:59:58.962Z,11.40
2023-04-10T10:02:28.814Z,11.40
2023-04-10T10:04:57.156Z,11.50
2023-04-10T10:07:24.431Z,11.40
2023-04-10T10:09:52.796Z,11.40
2023-04-10T10:12:26.481Z,11.40
2023-04-10T10:14:53.713Z,11.40
2023-04-10T10:17:22.603Z,11.30
2023-04-10T10:20:16.234Z,11.40
2023-04-10T10:22:44.150Z,11.40
2023-04-10T10:25:12.855Z,11.40
2023-04-10T10:27:41.676Z,11.50
2023-04-10T10:30:25.225Z,11.50
2023-04-10T10:32:58.094Z,11.50
2023-04-10T10:36:13.116Z,11.50
2023-04-10T10:38:13.889Z,11.50
2023-04-10T10:40:45.415Z,11.50
2023-04-10T10:43:23.364Z,11.50
2023-04-10T10:45:56.781Z,11.50
2023-04-10T10:48:24.059Z,11.50
2023-04-10T10:51:00.405Z,11.60
2023-04-10T10:53:45.736Z,11.50
2023-04-10T10:56:18.753Z,11.60
2023-04-10T10:59:06.289Z,11.60
2023-04-10T11:01:33.730Z,11.60
2023-04-10T11:04:01.461Z,11.70
2023-04-10T11:06:47.362Z,11.80
2023-04-10T11:09:32.979Z,11.80
2023-04-10T11:12:00.518Z,11.90
2023-04-10T11:14:29.811Z,12.00
2023-04-10T11:16:57.124Z,12.00
2023-04-10T11:19:26.184Z,12.10
2023-04-10T11:21:59.967Z,12.20
2023-04-10T11:24:27.342Z,12.20
2023-04-10T11:26:56.206Z,12.30
2023-04-10T11:29:29.595Z,12.40
2023-04-10T11:31:57.851Z,12.40
2023-04-10T11:34:27.524Z,12.40
2023-04-10T11:36:54.931Z,12.40
2023-04-10T11:39:22.325Z,12.50
2023-04-10T11:41:50.861Z,12.50
2023-04-10T11:44:21.144Z,12.40
2023-04-10T11:46:50.797Z,12.50
2023-04-10T11:49:26.261Z,12.50
2023-04-10T11:51:53.966Z,12.50
2023-04-10T11:54:27.962Z,12.60
2023-04-10T11:56:59.568Z,12.70
2023-04-10T11:59:27.357Z,12.70
2023-04-10T12:02:03.157Z,12.80
2023-04-10T12:04:30.707Z,12.90
2023-04-10T12:06:58.218Z,13.10
2023-04-10T12:09:26.310Z,13.20
2023-04-10T12:11:54.437Z,13.30
2023-04-10T12:14:22.336Z,13.40
2023-04-10T12:16:50.339Z,13.70
2023-04-10T12:19:18.213Z,13.70
2023-04-10T12:21:46.036Z,13.80
2023-04-10T12:24:13.434Z,13.90
2023-04-10T12:26:47.743Z,13.90
2023-04-10T12:29:15.521Z,13.90
2023-04-10T12:31:43.036Z,13.90
2023-04-10T12:34:11.427Z,13.80
2023-04-10T12:36:39.229Z,13.70
2023-04-10T12:39:21.419Z,13.40
2023-04-10T12:41:48.664Z,13.00
2023-04-10T12:44:16.262Z,11.30
2023-04-10T12:46:44.462Z,10.80
2023-04-10T12:49:15.469Z,10.60
2023-04-10T12:51:43.267Z,10.60
2023-04-10T12:54:10.527Z,10.70
2023-04-10T12:56:44.438Z,10.80
2023-04-10T12:59:12.585Z,10.80
2023-04-10T13:01:40.082Z,10.70
2023-04-10T13:04:07.617Z,10.70
2023-04-10T13:06:42.508Z,10.70
2023-04-10T13:09:09.909Z,11.10
2023-04-10T13:11:37.124Z,11.70
2023-04-10T13:14:04.444Z,12.40
2023-04-10T13:16:31.743Z,12.80
2023-04-10T13:18:59.067Z,12.90
2023-04-10T13:21:28.392Z,13.00
2023-04-10T13:23:56.372Z,13.50
2023-04-10T13:26:23.927Z,13.90
2023-04-10T13:28:51.277Z,14.20
2023-04-10T13:31:18.704Z,14.00
2023-04-10T13:33:47.983Z,13.60
2023-04-10T13:36:15.608Z,13.40
2023-04-10T13:38:42.960Z,13.40
2023-04-10T13:41:10.324Z,13.40
2023-04-10T13:43:37.644Z,13.40
2023-04-10T13:46:05.585Z,13.20
2023-04-10T13:48:39.946Z,13.10
2023-04-10T13:55:11.987Z,12.90
2023-04-10T13:57:39.446Z,12.70
2023-04-10T14:00:07.559Z,12.40
2023-04-10T14:06:42.947Z,12.00
2023-04-10T14:13:18.085Z,13.50
2023-04-10T14:15:45.409Z,14.50
2023-04-10T14:18:17.503Z,14.60
2023-04-10T14:24:58.926Z,14.80
2023-04-10T14:27:33.656Z,15.40
2023-04-10T14:30:00.897Z,15.50
2023-04-10T14:32:28.245Z,15.60
2023-04-10T14:34:55.611Z,15.60
2023-04-10T14:37:22.976Z,15.10
2023-04-10T14:39:50.271Z,14.70
2023-04-10T14:42:17.555Z,14.30
2023-04-10T14:44:44.945Z,14.10
2023-04-10T14:47:12.346Z,14.00
2023-04-10T14:49:40.613Z,13.80
2023-04-10T14:52:08.528Z,13.90
2023-04-10T14:54:35.787Z,14.10
2023-04-10T14:57:04.336Z,14.30
2023-04-10T14:59:31.886Z,14.40
2023-04-10T15:01:59.265Z,14.60
2023-04-10T15:04:26.861Z,14.70
2023-04-10T15:06:54.243Z,14.80
2023-04-10T15:09:22.063Z,14.70
2023-04-10T15:11:49.432Z,14.70
2023-04-10T15:14:16.645Z,14.70
2023-04-10T15:16:43.883Z,14.70
2023-04-10T15:19:11.188Z,14.70
2023-04-10T15:21:38.605Z,14.70
2023-04-10T15:24:05.999Z,14.80
2023-04-10T15:26:33.750Z,14.70
2023-04-10T15:29:01.027Z,14.70
2023-04-10T15:31:28.488Z,14.70
2023-04-10T15:33:58.306Z,14.60
2023-04-10T15:36:25.683Z,14.50
2023-04-10T15:38:53.034Z,14.40
2023-04-10T15:41:20.337Z,14.40
2023-04-10T15:43:48.541Z,14.40
2023-04-10T15:46:17.438Z,14.50
2023-04-10T15:48:48.388Z,14.50
2023-04-10T15:51:15.671Z,14.50
2023-04-10T15:53:42.906Z,14.60
2023-04-10T15:56:10.316Z,14.60
2023-04-10T15:58:37.627Z,14.60
2023-04-10T16:01:05.100Z,14.70
2023-04-10T16:03:32.830Z,14.60
2023-04-10T16:06:00.470Z,14.50
2023-04-10T16:08:27.822Z,14.60
2023-04-10T16:10:55.955Z,14.60
2023-04-10T16:13:23.229Z,14.60
2023-04-10T16:15:51.895Z,14.50
2023-04-10T16:18:19.224Z,14.40
2023-04-10T16:20:46.502Z,14.40
2023-04-10T16:23:13.755Z,14.40
2023-04-10T16:25:41.122Z,14.40
2023-04-10T16:28:08.418Z,14.40
2023-04-10T16:30:36.147Z,14.50
2023-04-10T16:33:04.217Z,14.50
2023-04-10T16:35:32.107Z,14.40
2023-04-10T16:37:59.458Z,14.30
2023-04-10T16:40:32.742Z,14.20
2023-04-10T16:43:01.760Z,14.10
2023-04-10T16:45:29.378Z,14.00
2023-04-10T16:47:56.743Z,13.90
2023-04-10T16:50:24.025Z,14.00
2023-04-10T16:52:51.353Z,13.90
2023-04-10T16:55:18.839Z,13.90
2023-04-10T16:57:46.228Z,13.90
2023-04-10T17:00:13.848Z,13.90
2023-04-10T17:02:42.840Z,13.80
2023-04-10T17:05:11.058Z,13.80
2023-04-10T17:07:38.371Z,13.70
2023-04-10T17:10:05.922Z,13.70
2023-04-10T17:12:33.283Z,13.70
2023-04-10T17:15:01.920Z,13.70
2023-04-10T17:17:29.470Z,13.80
2023-04-10T17:19:57.423Z,13.70
2023-04-10T17:22:25.062Z,13.60
2023-04-10T17:24:52.385Z,13.60
2023-04-10T17:27:19.641Z,13.50
2023-04-10T17:29:47.002Z,13.40
2023-04-10T17:32:14.276Z,13.40
2023-04-10T17:34:41.544Z,13.30
2023-04-10T17:37:08.812Z,13.20
2023-04-10T17:39:36.181Z,13.20
2023-04-10T17:42:03.480Z,13.20
2023-04-10T17:44:31.018Z,13.10
2023-04-10T17:46:58.418Z,13.00
2023-04-10T17:49:25.785Z,12.90
2023-04-10T17:51:53.269Z,13.00
2023-04-10T17:54:20.567Z,12.90
2023-04-10T17:56:47.797Z,12.90
2023-04-10T17:59:15.035Z,12.90
2023-04-10T18:01:42.466Z,13.00
2023-04-10T18:04:09.812Z,12.90
2023-04-10T18:06:37.076Z,12.90
2023-04-10T18:09:04.409Z,13.00
2023-04-10T18:11:31.735Z,13.00
2023-04-10T18:13:58.983Z,12.90
2023-04-10T18:16:26.326Z,12.80
2023-04-10T18:18:53.922Z,12.70
2023-04-10T18:21:21.396Z,12.60
2023-04-10T18:23:48.692Z,12.60
2023-04-10T18:26:15.998Z,12.60
2023-04-10T18:28:43.588Z,12.50
2023-04-10T18:31:12.617Z,12.50
2023-04-10T18:33:40.048Z,12.40
2023-04-10T18:36:07.618Z,12.30
2023-04-10T18:38:34.901Z,12.30
2023-04-10T18:41:02.260Z,12.20
2023-04-10T18:43:29.585Z,12.20
2023-04-10T18:45:57.020Z,12.20
2023-04-10T18:48:24.314Z,12.10
2023-04-10T18:50:52.863Z,12.10
2023-04-10T18:53:20.892Z,12.00
2023-04-10T18:55:49.368Z,12.00
2023-04-10T18:58:16.587Z,11.90
2023-04-10T19:00:43.795Z,11.90
2023-04-10T19:03:11.319Z,11.90
2023-04-10T19:05:38.913Z,11.90
2023-04-10T19:08:06.630Z,11.80
2023-04-10T19:10:34.108Z,11.80
2023-04-10T19:13:01.380Z,11.70
2023-04-10T19:15:28.948Z,11.70
2023-04-10T19:17:56.489Z,11.70
2023-04-10T19:20:52.182Z,11.60
2023-04-10T19:23:11.801Z,11.60
2023-04-10T19:25:39.137Z,11.50
2023-04-10T19:28:06.963Z,11.50
2023-04-10T19:34:38.486Z,11.40
2023-04-10T19:37:05.838Z,11.40
2023-04-10T19:39:33.116Z,11.30
2023-04-10T19:42:00.378Z,11.30
2023-04-10T19:44:27.712Z,11.20
2023-04-10T19:46:55.043Z,11.20
2023-04-10T19:49:22.420Z,11.20
2023-04-10T19:51:49.709Z,11.10
2023-04-10T19:54:16.947Z,11.10
2023-04-10T19:56:44.277Z,11.10
2023-04-10T19:59:11.884Z,11.00
2023-04-10T20:01:39.181Z,11.00
2023-04-10T20:08:10.432Z,10.90
2023-04-10T20:14:43.391Z,10.80
2023-04-10T20:17:11.327Z,10.70
2023-04-10T20:19:38.633Z,10.70
2023-04-10T20:22:07.147Z,10.70
2023-04-10T20:24:34.482Z,10.70
2023-04-10T20:27:01.772Z,10.60
2023-04-10T20:29:29.060Z,10.60
2023-04-10T20:31:56.513Z,10.60
2023-04-10T20:34:23.881Z,10.60
2023-04-10T20:40:55.807Z,10.60
2023-04-10T20:43:23.061Z,10.50
2023-04-10T20:45:50.331Z,9.80
2023-04-10T20:48:17.661Z,9.10
2023-04-10T20:54:59.402Z,8.40
2023-04-10T20:57:26.669Z,8.30
2023-04-10T20:59:53.928Z,8.20
2023-04-10T21:02:21.374Z,8.20
2023-04-10T21:04:49.847Z,8.20
2023-04-10T21:07:17.084Z,8.20
2023-04-10T21:09:44.415Z,8.30
2023-04-10T21:12:11.665Z,8.30
2023-04-10T21:14:39.003Z,8.30
2023-04-10T21:17:06.292Z,8.30
2023-04-10T21:19:33.578Z,8.40
2023-04-10T21:22:00.975Z,8.50
2023-04-10T21:24:28.487Z,8.50
2023-04-10T21:26:55.794Z,8.50
2023-04-10T21:33:27.822Z,8.50
2023-04-10T21:35:55.933Z,8.50
2023-04-10T21:42:27.567Z,8.50
2023-04-10T21:44:54.895Z,8.50
2023-04-10T21:47:22.136Z,8.50
2023-04-10T21:49:49.378Z,8.50
2023-04-10T21:52:16.714Z,8.50
2023-04-10T21:54:44.007Z,8.50
2023-04-10T21:57:11.285Z,8.60
2023-04-10T21:59:38.572Z,8.60
2023-04-10T22:02:06.504Z,8.60
2023-04-10T22:04:34.674Z,8.60
2023-04-10T22:07:05.424Z,8.60
2023-04-10T22:09:32.952Z,8.60
2023-04-10T22:12:00.447Z,8.70
2023-04-10T22:14:27.707Z,8.70
2023-04-10T22:16:56.125Z,8.70
2023-04-10T22:19:25.331Z,8.70
2023-04-10T22:21:52.610Z,8.70
2023-04-10T22:24:19.848Z,8.70
2023-04-10T22:26:47.118Z,8.80
2023-04-10T22:29:14.617Z,8.80
2023-04-10T22:31:42.124Z,8.90
2023-04-10T22:34:09.755Z,8.90
2023-04-10T22:36:37.342Z,8.90
2023-04-10T22:39:04.625Z,8.90
2023-04-10T22:41:32.198Z,8.80
2023-04-10T22:43:59.448Z,8.90
2023-04-10T22:46:26.790Z,8.90
2023-04-10T22:48:54.826Z,8.90
2023-04-10T22:51:22.298Z,9.00
2023-04-10T22:53:49.554Z,9.00
2023-04-10T22:56:17.232Z,9.00
2023-04-10T22:58:44.689Z,9.10
2023-04-10T23:01:11.948Z,9.00
2023-04-10T23:03:39.404Z,9.00
2023-04-10T23:06:06.924Z,9.00
2023-04-10T23:08:34.257Z,9.00
2023-04-10T23:11:01.525Z,9.00
2023-04-10T23:13:28.795Z,9.00
2023-04-10T23:15:56.406Z,9.00
2023-04-10T23:18:23.679Z,9.00
2023-04-10T23:20:51.147Z,9.00
2023-04-10T23:23:18.520Z,9.00
2023-04-10T23:25:45.864Z,9.00
2023-04-10T23:28:13.221Z,8.90
2023-04-10T23:30:42.102Z,8.90
2023-04-10T23:33:09.421Z,8.90
2023-04-10T23:35:36.855Z,8.90
2023-04-10T23:38:04.141Z,8.90
2023-04-10T23:40:31.456Z,8.90
2023-04-10T23:42:58.794Z,8.90
2023-04-10T23:45:26.103Z,8.80
2023-04-10T23:47:53.395Z,8.80
2023-04-10T23:50:20.726Z,8.80
2023-04-10T23:52:49.894Z,8.80
2023-04-10T23:55:17.205Z,8.80
2023-04-10T23:57:44.679Z,8.70
